Latest Coastal Weather Observations for Adelaide Airport

IDS60701

Issued at 10:21 pm CST Saturday 30 May 2015 (issued every 10 minutes, with the page automatically refreshed every 10 minutes)

About coastal observations | Map of coastal stations | Coastal observations for SA | Marine services | Other Formats
Station Details ID: 023034 Name: ADELAIDE AIRPORT Lat: -34.95 Lon: 138.52 Height: 2.0 m
Data from the previous 72 hours. | See also: Recent months at Adelaide Airport
Date/Time
CST
Temp

°C
Wind Pressure Rain
since 9am
mm
Weather Cloud Vis
km
Sea
Height
m
Swell
Dir
 
Speed
knots
Gust
knots
hPa Trend Height
m
Period
s
Dir
30/10:00pm 13.5 W 8 11 1020.3 - 0.8 - Mostly clear 10 - - - -
30/09:30pm 13.6 W 9 13 1020.5 - 0.8 - Mostly clear 10 - - - -
30/09:00pm 13.7 W 8 11 1020.7 F 0.8 Fine Mostly cloudy 30 - - - -
30/08:30pm 14.0 W 10 13 1020.9 - 0.8 - Mostly clear 10 - - - -
30/08:00pm 13.7 WNW 7 9 1020.9 - 0.8 - Mostly clear 10 - - - -
30/07:30pm 13.6 WNW 11 14 1020.9 - 0.8 - Mostly clear 10 - - - -
30/07:00pm 14.0 NW 8 10 1020.6 - 0.8 - Partly cloudy 10 - - - -
30/06:30pm 13.6 NW 7 8 1020.3 - 0.8 - Mostly clear 10 - - - -
30/06:00pm 13.4 NW 7 9 1020.3 F 0.8 Fine Partly cloudy 30 - - - -
30/05:30pm 13.7 NW 7 8 1020.5 - 0.8 - Mostly clear 10 - - - -
30/05:00pm 13.2 NNW 6 9 1020.5 - 0.8 - Mostly clear 10 - - - -
30/04:30pm 13.2 NNW 7 9 1020.5 - 0.8 - Mostly clear 10 - - - -
30/04:00pm 13.1 NW 11 14 1020.5 - 0.8 - Mostly clear 10 - - - -
30/03:30pm 12.9 WNW 9 11 1020.5 - 0.8 - Mostly clear 10 - - - -
30/03:17pm 13.2 WNW 7 10 1020.6 - 0.4 Drizzle Mostly clear 4 - - - -
30/03:00pm 13.1 NNW 7 8 1020.7 S 0.2 Recent precip. Mostly cloudy 15 - - - -
30/02:51pm 13.0 NW 8 11 1020.7 - 0.2 Drizzle Partly cloudy 5 - - - -
30/02:34pm 13.1 WNW 8 11 1020.9 - 0.0 Drizzle Partly cloudy 3 - - - -
30/02:30pm 13.2 WNW 8 11 1020.8 - 0.0 - Mostly clear 3 - - - -
30/02:18pm 13.3 NW 12 17 1020.8 - 0.0 Showers Mostly clear 4 - - - -
30/02:10pm 13.5 NW 11 17 1020.8 - 0.0 Showers Mostly clear 6 - - - -
30/02:00pm 14.5 NNW 11 14 1020.7 - 0.0 - Mostly clear 10 - - - -
30/01:30pm 14.9 NW 12 16 1020.9 - 0.0 - Mostly clear 10 - - - -
30/01:00pm 15.4 NW 13 18 1021.3 - 0.0 - Mostly clear 10 - - - -
30/12:30pm 15.1 NW 13 16 1021.5 - 0.0 - Mostly clear 10 - - - -
30/12:00pm 14.3 NW 10 16 1022.0 F 0.0 Fine Partly cloudy 25 - - - -
30/11:30am 13.3 WNW 15 19 1022.7 - 0.0 - Mostly clear 10 - - - -
30/11:00am 14.8 NNW 13 16 1023.1 - 0.0 - Mostly clear 10 - - - -
30/10:30am 14.3 NNW 10 14 1023.4 - 0.0 - Mostly clear 10 - - - -
30/09:30am 12.6 N 8 10 1023.8 - 0.0 - Mostly clear 10 - - - -
30/09:00am 11.8 NNE 8 11 1023.9 F 0.8 Fine Mostly cloudy 25 - - - -
30/08:30am 10.8 NNE 8 11 1023.8 - 0.8 - Mostly clear 10 - - - -
30/08:00am 9.8 NE 5 7 1023.8 - 0.8 - Mostly clear 10 - - - -
30/07:30am 9.4 NE 5 7 1023.5 - 0.8 - Mostly clear 10 - - - -
30/07:00am 9.4 NE 5 6 1023.4 - 0.8 - Mostly clear 10 - - - -
30/06:30am 9.9 NE 6 8 1023.4 - 0.8 - Mostly clear 10 - - - -
30/06:00am 9.8 NE 6 6 1023.4 F 0.8 Fine Mostly cloudy 25 - - - -
30/05:30am 9.7 NE 6 7 1023.2 - 0.8 - Partly cloudy 10 - - - -
30/05:00am 9.7 NE 5 6 1023.3 - 0.8 - Partly cloudy 10 - - - -
30/04:30am 8.7 NE 5 6 1023.1 - 0.8 - Partly cloudy 10 - - - -
30/04:00am 9.1 NE 5 6 1023.1 - 0.8 - Mostly clear 10 - - - -
30/03:30am 9.2 NE 6 7 1023.3 - 0.8 - Mostly clear 10 - - - -
30/03:00am 8.9 NNE 6 8 1023.4 R 0.8 Fine Partly cloudy 25 - - - -
30/02:30am 9.3 NE 7 8 1023.3 - 0.8 - Mostly clear 10 - - - -
30/02:00am 9.5 NE 7 8 1023.3 - 0.8 - Mostly clear 10 - - - -
30/01:30am 9.9 NE 5 6 1023.4 - 0.8 - Mostly clear 10 - - - -
30/01:00am 9.9 NE 4 5 1023.5 - 0.8 - Mostly clear 10 - - - -
30/12:30am 9.3 NE 4 4 1023.7 - 0.8 - Partly cloudy 10 - - - -
 
Date/Time
CST
Temp

°C
Wind Pressure Rain
since 9am
mm
Weather Cloud Vis
km
Sea
Height
m
Swell
Dir
 
Speed
knots
Gust
knots
hPa Trend Height
m
Period
s
Dir
29/11:30pm 9.8 NE 3 4 1024.1 - 0.8 - - 10 - - - -
29/11:00pm 10.0 NE 5 5 1024.3 - 0.8 - - 10 - - - -
29/10:30pm 11.0 NE 5 6 1024.5 - 0.8 - Partly cloudy 10 - - - -
29/10:00pm 11.9 CALM 0 0 1024.6 - 0.8 - Partly cloudy 10 - - - -
29/09:30pm 12.5 SW 7 8 1024.5 - 0.8 - Mostly clear 10 - - - -
29/09:00pm 12.5 WNW 4 5 1024.6 S 0.8 Fine Mostly cloudy 30 - - - -
29/08:30pm 12.6 WNW 5 5 1024.6 - 0.8 - Mostly cloudy 10 - - - -
29/08:00pm 12.5 WSW 5 7 1024.4 - 0.8 - Mostly clear 10 - - - -
29/07:30pm 12.6 W 7 10 1024.2 - 0.8 - Mostly clear 10 - - - -
29/07:00pm 13.0 CALM 0 0 1024.0 - 0.4 - Mostly clear 10 - - - -
29/06:30pm 12.9 CALM 0 0 1023.9 - 0.4 - Mostly clear 10 - - - -
29/06:00pm 13.0 S 4 4 1023.9 R 0.4 Distant precip. Mostly cloudy 25 - - - -
29/05:30pm 12.7 S 4 5 1023.8 - 0.4 - Mostly clear 10 - - - -
29/05:00pm 12.9 WSW 8 14 1023.7 - 0.4 Showers Mostly clear 10 - - - -
29/04:30pm 14.3 WSW 4 6 1023.5 - 0.2 - Mostly clear 10 - - - -
29/04:00pm 14.5 WSW 6 7 1023.5 - 0.2 - Mostly clear 10 - - - -
29/03:30pm 14.6 WSW 6 9 1023.3 - 0.2 - Mostly clear 10 - - - -
29/03:00pm 15.5 WNW 5 7 1023.3 R 0.2 Distant precip. Partly cloudy 30 - - - -
29/02:30pm 15.3 WSW 7 8 1023.5 - 0.2 - Mostly clear 10 - - - -
29/02:00pm 15.2 W 6 10 1023.6 - 0.2 - Mostly clear 10 - - - -
29/01:30pm 15.1 S 4 6 1023.6 - 0.2 - Mostly clear 10 - - - -
29/01:00pm 14.2 SW 8 13 1023.9 - 0.2 Showers Partly cloudy 10 - - - -
29/12:30pm 15.1 W 6 8 1023.9 - 0.2 - Mostly clear 10 - - - -
29/12:00pm 15.0 W 7 8 1024.2 R 0.2 Distant precip. Mostly cloudy 30 - - - -
29/11:30am 15.4 WNW 5 8 1024.3 - 0.2 - Mostly clear 10 - - - -
29/11:00am 15.3 SE 2 5 1024.3 - 0.2 - Mostly clear 10 - - - -
29/10:30am 15.6 E 4 6 1024.6 - 0.2 - Mostly clear 10 - - - -
29/10:00am 15.3 SE 2 3 1024.7 - 0.2 - Mostly clear 10 - - - -
29/09:30am 12.9 S 4 7 1024.6 - 0.2 - Mostly clear 10 - - - -
29/09:00am 13.9 NNE 4 5 1024.1 R 0.8 Showers Mostly cloudy 20 - - - -
29/08:30am 13.4 ENE 4 5 1023.9 - 0.8 - Mostly clear 10 - - - -
29/08:00am 11.5 ENE 3 4 1023.9 - 0.8 - Mostly clear 10 - - - -
29/07:30am 11.3 NE 4 5 1023.6 - 0.8 - Mostly clear 10 - - - -
29/07:00am 11.7 NE 4 5 1023.3 - 0.8 - Mostly clear 10 - - - -
29/06:30am 11.3 ESE 4 5 1023.1 - 0.8 - Mostly clear 10 - - - -
29/06:00am 11.4 CALM 0 0 1022.7 R 0.8 Fine Partly cloudy 25 - - - -
29/05:30am 13.0 CALM 0 0 1022.7 - 0.8 - Partly cloudy 10 - - - -
29/05:00am 12.4 SE 4 4 1022.6 - 0.8 - Cloudy 10 - - - -
29/04:30am 12.5 SSE 5 7 1022.4 - 0.8 - Mostly cloudy 10 - - - -
29/04:00am 14.1 WSW 7 9 1022.1 - 0.8 - Cloudy 10 - - - -
29/03:30am 13.7 NNW 3 6 1022.1 - 0.8 - Mostly clear 10 - - - -
29/03:00am 12.9 SW 5 6 1021.7 R 0.8 Fine Mostly cloudy 25 - - - -
29/02:30am 13.4 SW 7 8 1021.8 - 0.8 - Mostly clear 10 - - - -
29/02:00am 13.6 SW 5 6 1022.0 - 0.8 - Mostly clear 10 - - - -
29/01:30am 13.6 SSW 7 9 1021.7 - 0.8 - Mostly clear 10 - - - -
29/01:00am 13.9 SW 7 10 1022.0 - 0.8 - Mostly clear 10 - - - -
29/12:30am 14.1 SW 7 9 1021.7 - 0.8 - Mostly clear 10 - - - -
29/12:00am 13.9 SW 8 11 1021.4 R 0.8 Fine Mostly cloudy 25 - - - -
 
Date/Time
CST
Temp

°C
Wind Pressure Rain
since 9am
mm
Weather Cloud Vis
km
Sea
Height
m
Swell
Dir
 
Speed
knots
Gust
knots
hPa Trend Height
m
Period
s
Dir
28/11:30pm 14.5 WSW 10 13 1021.5 - 0.8 - Mostly clear 10 - - - -
28/11:00pm 14.6 WSW 10 14 1021.7 - 0.8 - Mostly clear 10 - - - -
28/10:30pm 14.6 WSW 13 18 1021.5 - 0.8 - Mostly clear 10 - - - -
28/10:00pm 14.8 WSW 10 14 1021.5 - 0.8 - Mostly clear 10 - - - -
28/09:30pm 14.7 W 8 10 1021.1 - 0.8 - Mostly clear 10 - - - -
28/09:00pm 14.5 WSW 10 14 1020.8 R 0.8 Fine Mostly cloudy 25 - - - -
28/08:30pm 14.6 WSW 9 12 1020.6 - 0.8 - Mostly clear 10 - - - -
28/08:00pm 14.5 W 9 13 1020.4 - 0.8 - Mostly clear 10 - - - -
28/07:30pm 14.6 W 9 11 1020.2 - 0.8 - Mostly clear 10 - - - -
28/07:00pm 14.0 WNW 7 9 1019.9 - 0.8 - Mostly clear 10 - - - -
28/06:30pm 13.9 WNW 6 8 1019.6 - 0.8 - Mostly clear 10 - - - -
28/06:00pm 13.7 WSW 11 14 1019.6 R 0.8 Distant precip. Cloudy 15 - - - -
28/05:46pm 13.7 WSW 13 17 1019.5 - 0.6 Showers Mostly clear 5 - - - -
28/05:30pm 14.3 W 8 10 1019.2 - 0.6 - Mostly clear 10 - - - -
28/05:00pm 13.9 W 15 21 1019.0 - 0.4 - Mostly clear 10 - - - -
28/04:43pm 14.1 WSW 16 20 1018.8 - 0.4 Showers Mostly clear 4 - - - -
28/04:30pm 14.8 WSW 13 19 1018.6 - 0.0 - Partly cloudy 10 - - - -
28/04:00pm 16.8 WNW 12 16 1018.0 - 0.0 - Mostly clear 10 - - - -
28/03:30pm 17.0 WNW 12 15 1017.9 - 0.0 - Mostly clear 10 - - - -
28/03:00pm 17.8 WNW 12 16 1017.9 R 0.0 Fine Mostly cloudy 30 - - - -
28/02:30pm 17.9 WNW 11 14 1017.7 - 0.0 - Mostly clear 10 - - - -
28/02:00pm 17.8 WNW 12 17 1017.6 - 0.0 - Mostly clear 10 - - - -
28/01:30pm 17.5 NW 13 16 1018.0 - 0.0 - Partly cloudy 10 - - - -
28/01:00pm 17.1 NW 13 18 1018.2 - 0.0 - Mostly cloudy 10 - - - -
28/12:30pm 17.6 NW 13 17 1018.3 - 0.0 - Partly cloudy 10 - - - -
28/12:00pm 16.5 NNW 12 16 1018.7 S 0.0 Fine Mostly clear 30 - - - -
28/11:30am 15.8 NNW 14 18 1019.2 - 0.0 - Mostly clear 10 - - - -
28/11:21am 15.6 NNW 14 20 1019.3 - 0.0 - Partly cloudy 10 - - - -
28/11:02am 15.9 NNW 14 18 1019.5 - 0.0 - Mostly clear 10 - - - -
28/11:00am 16.0 NNW 13 18 1019.5 - 0.0 - Partly cloudy 10 - - - -
28/10:37am 15.7 NNE 8 10 1019.4 - 0.0 - Partly cloudy 8 - - - -
28/10:30am 15.7 NNE 8 10 1019.4 - 0.0 - Partly cloudy 4 - - - -
28/10:00am 13.7 NNE 9 12 1019.3 - 0.0 - Cloudy 3 - - - -
28/09:30am 13.2 NNE 10 14 1019.3 - 0.0 - Cloudy 3 - - - -
28/09:00am 13.2 NNE 9 12 1019.3 S 0.0 Fog patches Mostly cloudy 5 - - - -
28/08:30am 12.9 NE 8 9 1019.3 - 0.0 - Mostly clear 10 - - - -
28/08:00am 11.7 NE 7 10 1019.0 - 0.0 - Mostly cloudy 10 - - - -
28/07:40am 10.6 NE 6 7 1019.0 - 0.0 - Mostly cloudy 10 - - - -
28/07:30am 10.2 NE 5 6 1018.8 - 0.0 - Partly cloudy 10 - - - -
28/07:00am 10.3 NE 7 9 1018.8 - 0.0 - Mostly clear 10 - - - -
28/06:30am 10.5 NNE 8 11 1018.4 - 0.0 - Mostly clear 10 - - - -
28/06:00am 10.5 NNE 5 6 1018.2 R 0.0 Fine Mostly clear 30 - - - -
28/05:30am 10.9 NNE 8 9 1017.7 - 0.0 - Mostly clear 10 - - - -
28/05:00am 11.4 NE 7 7 1017.7 - 0.0 - Partly cloudy 10 - - - -
28/04:30am 11.9 NNE 6 6 1017.9 - 0.0 - Cloudy 10 - - - -
28/04:00am 11.9 NE 6 7 1017.7 - 0.0 - Cloudy 10 - - - -
28/03:30am 12.5 NNE 9 11 1017.8 - 0.0 - Cloudy 10 - - - -
28/03:00am 12.1 NNE 7 8 1017.6 S 0.0 Fine Mostly cloudy 30 - - - -
28/02:30am 12.3 NE 9 10 1017.6 - 0.0 - Partly cloudy 10 - - - -
28/02:00am 11.4 NE 5 6 1018.1 - 0.0 - Partly cloudy 10 - - - -
28/01:30am 11.0 NNE 6 6 1018.4 - 0.0 - Partly cloudy 10 - - - -
28/01:00am 10.9 NE 5 6 1018.1 - 0.0 - Partly cloudy 10 - - - -
28/12:30am 11.4 NE 6 7 1018.0 - 0.0 - Partly cloudy 10 - - - -
28/12:00am 11.7 NE 8 9 1018.1 F 0.0 Fine Partly cloudy 35 - - - -
 
Date/Time
CST
Temp

°C
Wind Pressure Rain
since 9am
mm
Weather Cloud Vis
km
Sea
Height
m
Swell
Dir
 
Speed
knots
Gust
knots
hPa Trend Height
m
Period
s
Dir
27/11:30pm 12.6 NNE 5 6 1018.6 - 0.0 - - 10 - - - -
27/11:00pm 12.5 NE 5 6 1018.6 - 0.0 - - 10 - - - -
27/10:30pm 12.5 NE 5 6 1018.7 - 0.0 - - 10 - - - -

Other Formats:

Comma delimited format used in spreadsheet applications
http://www.bom.gov.au/fwo/IDS60701/IDS60701.94672.axf

JavaScript Object Notation format (JSON) in row-major order
http://www.bom.gov.au/fwo/IDS60701/IDS60701.94672.json